Terminal Aerodrome Forecast
Issued by NWS

Home | Current Version | Previous Version | Text Only | Print | Product List | Glossary On
Versions: 1 2 3 4 5 6 7 8 9 10 11 12 13 14 15 16 17 18 19 20 21 22 23 24
000
FTUS43 KAPX 021120
TAFMBL
TAF
KMBL 021120Z 0212/0312 09003KT 1/2SM FG VV005
     FM021215 09003KT 1SM BR SCT018
     FM021300 24005KT P6SM SCT025
     FM021700 28008KT P6SM SCT040
     FM030000 VRB03KT P6SM BKN120
     FM030300 10003KT 3SM BR VCSH BKN120
      AMD LTD TO CLD VIS AND WIND=

USA.gov is the U.S. government's official web portal to all federal, state and local government web resources and services.